sensor_id;sensor_type;location;lat;lon;timestamp;pressure;altitude;pressure_sealevel;temperature;humidity
46846;BME280;33947;46.804;134.252;2023-05-07T00:02:01;100838.44;;;19.19;33.59
46846;BME280;33947;46.804;134.252;2023-05-07T00:05:09;100827.50;;;19.22;33.82
46846;BME280;33947;46.804;134.252;2023-05-07T00:08:16;100820.78;;;18.99;34.00
46846;BME280;33947;46.804;134.252;2023-05-07T00:11:22;100814.88;;;19.22;33.75
46846;BME280;33947;46.804;134.252;2023-05-07T00:14:31;100808.44;;;18.62;34.00
46846;BME280;33947;46.804;134.252;2023-05-07T00:17:37;100823.56;;;19.58;33.16
46846;BME280;33947;46.804;134.252;2023-05-07T00:20:42;100825.06;;;19.48;32.45
46846;BME280;33947;46.804;134.252;2023-05-07T00:23:46;100786.78;;;18.16;33.99
46846;BME280;33947;46.804;134.252;2023-05-07T00:26:51;100806.34;;;18.84;33.81
46846;BME280;33947;46.804;134.252;2023-05-07T00:29:56;100797.53;;;19.43;32.47
46846;BME280;33947;46.804;134.252;2023-05-07T00:33:01;100814.59;;;20.32;31.56
46846;BME280;33947;46.804;134.252;2023-05-07T00:36:05;100797.31;;;20.49;31.21
46846;BME280;33947;46.804;134.252;2023-05-07T00:39:10;100807.88;;;20.66;30.38
46846;BME280;33947;46.804;134.252;2023-05-07T00:42:14;100800.50;;;20.83;30.42
46846;BME280;33947;46.804;134.252;2023-05-07T00:45:19;100809.00;;;21.32;29.77
46846;BME280;33947;46.804;134.252;2023-05-07T00:48:25;100673.69;;;21.22;28.85
46846;BME280;33947;46.804;134.252;2023-05-07T00:52:40;100789.91;;;22.25;28.00
46846;BME280;33947;46.804;134.252;2023-05-07T00:55:50;100792.47;;;22.40;28.31
46846;BME280;33947;46.804;134.252;2023-05-07T00:58:57;100795.03;;;22.17;28.40
46846;BME280;33947;46.804;134.252;2023-05-07T01:02:04;100780.88;;;22.51;28.10
46846;BME280;33947;46.804;134.252;2023-05-07T01:05:17;100738.84;;;22.45;26.78
46846;BME280;33947;46.804;134.252;2023-05-07T01:08:31;100790.53;;;21.51;28.14
46846;BME280;33947;46.804;134.252;2023-05-07T01:11:42;100783.75;;;22.23;27.04
46846;BME280;33947;46.804;134.252;2023-05-07T01:14:51;100739.63;;;22.47;26.44
46846;BME280;33947;46.804;134.252;2023-05-07T01:18:02;100784.72;;;22.97;26.11
46846;BME280;33947;46.804;134.252;2023-05-07T01:21:14;100793.28;;;22.66;26.05
46846;BME280;33947;46.804;134.252;2023-05-07T01:24:22;100792.00;;;22.83;25.19
46846;BME280;33947;46.804;134.252;2023-05-07T01:27:29;100776.78;;;22.32;25.32
46846;BME280;33947;46.804;134.252;2023-05-07T01:31:26;100803.25;;;22.66;24.19
46846;BME280;33947;46.804;134.252;2023-05-07T01:34:32;100771.78;;;22.76;24.26
46846;BME280;33947;46.804;134.252;2023-05-07T01:37:47;100781.47;;;22.92;23.97
46846;BME280;33947;46.804;134.252;2023-05-07T01:40:57;100726.50;;;22.54;23.84
46846;BME280;33947;46.804;134.252;2023-05-07T01:44:16;100784.34;;;21.36;25.71
46846;BME280;33947;46.804;134.252;2023-05-07T01:47:30;100737.72;;;21.73;25.42
46846;BME280;33947;46.804;134.252;2023-05-07T01:50:39;100741.09;;;22.64;23.90
46846;BME280;33947;46.804;134.252;2023-05-07T01:53:44;100757.41;;;21.88;24.55
46846;BME280;33947;46.804;134.252;2023-05-07T01:56:56;100759.72;;;21.41;25.23
46846;BME280;33947;46.804;134.252;2023-05-07T02:00:04;100781.59;;;22.66;24.07
46846;BME280;33947;46.804;134.252;2023-05-07T02:03:17;100765.66;;;23.10;24.10
46846;BME280;33947;46.804;134.252;2023-05-07T02:06:32;100756.56;;;23.35;23.61
46846;BME280;33947;46.804;134.252;2023-05-07T02:09:43;100750.28;;;23.22;23.53
46846;BME280;33947;46.804;134.252;2023-05-07T02:12:51;100754.19;;;23.31;22.92
46846;BME280;33947;46.804;134.252;2023-05-07T02:15:56;100735.84;;;21.74;24.40
46846;BME280;33947;46.804;134.252;2023-05-07T02:19:04;100716.84;;;21.75;25.35
46846;BME280;33947;46.804;134.252;2023-05-07T02:22:09;100733.09;;;22.63;24.33
46846;BME280;33947;46.804;134.252;2023-05-07T02:25:14;100734.34;;;21.95;22.04
46846;BME280;33947;46.804;134.252;2023-05-07T02:28:19;100722.03;;;19.88;25.19
46846;BME280;33947;46.804;134.252;2023-05-07T02:31:45;100719.91;;;20.07;24.69
46846;BME280;33947;46.804;134.252;2023-05-07T02:34:54;100708.31;;;19.92;25.01
46846;BME280;33947;46.804;134.252;2023-05-07T02:37:58;100715.75;;;20.86;24.64
46846;BME280;33947;46.804;134.252;2023-05-07T02:41:03;100714.09;;;22.01;23.34
46846;BME280;33947;46.804;134.252;2023-05-07T02:44:07;100697.28;;;22.09;23.49
46846;BME280;33947;46.804;134.252;2023-05-07T02:47:16;100708.25;;;21.17;23.17
46846;BME280;33947;46.804;134.252;2023-05-07T02:50:21;100703.97;;;21.53;23.85
46846;BME280;33947;46.804;134.252;2023-05-07T02:53:29;100676.91;;;20.88;23.18
46846;BME280;33947;46.804;134.252;2023-05-07T02:56:39;100669.69;;;21.40;23.26
46846;BME280;33947;46.804;134.252;2023-05-07T02:59:52;100656.94;;;21.43;23.58
46846;BME280;33947;46.804;134.252;2023-05-07T03:03:25;100661.69;;;21.52;20.43
46846;BME280;33947;46.804;134.252;2023-05-07T03:06:46;100689.91;;;21.74;22.25
46846;BME280;33947;46.804;134.252;2023-05-07T03:10:11;100689.34;;;22.56;21.02
46846;BME280;33947;46.804;134.252;2023-05-07T03:13:20;100593.97;;;21.79;21.07
46846;BME280;33947;46.804;134.252;2023-05-07T03:16:49;100611.50;;;22.60;20.29
46846;BME280;33947;46.804;134.252;2023-05-07T03:20:06;100659.31;;;22.83;21.05
46846;BME280;33947;46.804;134.252;2023-05-07T03:23:23;100645.66;;;22.85;19.98
46846;BME280;33947;46.804;134.252;2023-05-07T03:26:37;100645.75;;;22.83;21.41
46846;BME280;33947;46.804;134.252;2023-05-07T03:29:51;100657.50;;;23.42;21.21
46846;BME280;33947;46.804;134.252;2023-05-07T03:33:11;100634.34;;;23.03;21.14
46846;BME280;33947;46.804;134.252;2023-05-07T03:39:51;100648.50;;;21.47;21.33
46846;BME280;33947;46.804;134.252;2023-05-07T03:43:06;100664.16;;;21.42;21.78
46846;BME280;33947;46.804;134.252;2023-05-07T03:46:40;100586.59;;;20.39;22.29
46846;BME280;33947;46.804;134.252;2023-05-07T03:50:16;100634.91;;;20.29;22.15
46846;BME280;33947;46.804;134.252;2023-05-07T03:53:37;100636.06;;;19.98;22.41
46846;BME280;33947;46.804;134.252;2023-05-07T03:56:59;100539.81;;;19.29;22.50
46846;BME280;33947;46.804;134.252;2023-05-07T04:00:57;100618.69;;;19.16;21.21
46846;BME280;33947;46.804;134.252;2023-05-07T04:05:19;100640.31;;;19.44;22.99
46846;BME280;33947;46.804;134.252;2023-05-07T04:08:27;100636.56;;;19.75;22.13
46846;BME280;33947;46.804;134.252;2023-05-07T04:11:34;100623.34;;;20.00;21.34
46846;BME280;33947;46.804;134.252;2023-05-07T04:14:44;100617.63;;;19.62;21.70
46846;BME280;33947;46.804;134.252;2023-05-07T04:17:54;100626.34;;;19.95;22.26
46846;BME280;33947;46.804;134.252;2023-05-07T04:21:16;100630.84;;;19.80;21.99
46846;BME280;33947;46.804;134.252;2023-05-07T04:24:30;100622.69;;;19.96;22.75
46846;BME280;33947;46.804;134.252;2023-05-07T04:27:37;100629.56;;;19.58;23.01
46846;BME280;33947;46.804;134.252;2023-05-07T04:30:42;100633.03;;;19.31;22.75
46846;BME280;33947;46.804;134.252;2023-05-07T04:33:46;100632.59;;;19.08;21.27
46846;BME280;33947;46.804;134.252;2023-05-07T04:36:51;100630.97;;;19.78;22.06
46846;BME280;33947;46.804;134.252;2023-05-07T04:39:58;100616.16;;;20.41;21.58
46846;BME280;33947;46.804;134.252;2023-05-07T04:43:06;100621.16;;;20.87;20.28
46846;BME280;33947;46.804;134.252;2023-05-07T04:46:20;100597.34;;;20.66;19.95
46846;BME280;33947;46.804;134.252;2023-05-07T04:49:25;100625.41;;;21.04;19.88
46846;BME280;33947;46.804;134.252;2023-05-07T04:52:34;100625.28;;;21.19;20.19
46846;BME280;33947;46.804;134.252;2023-05-07T04:55:39;100613.50;;;21.07;20.69
46846;BME280;33947;46.804;134.252;2023-05-07T04:58:44;100624.03;;;20.71;20.98
46846;BME280;33947;46.804;134.252;2023-05-07T05:01:52;100541.09;;;20.07;21.03
46846;BME280;33947;46.804;134.252;2023-05-07T05:05:52;100556.56;;;19.90;20.98
46846;BME280;33947;46.804;134.252;2023-05-07T05:09:45;100598.22;;;19.85;21.37
46846;BME280;33947;46.804;134.252;2023-05-07T05:12:50;100616.03;;;20.02;21.40
46846;BME280;33947;46.804;134.252;2023-05-07T05:15:58;100605.66;;;19.95;22.10
46846;BME280;33947;46.804;134.252;2023-05-07T05:19:07;100606.53;;;19.67;21.83
46846;BME280;33947;46.804;134.252;2023-05-07T05:22:14;100598.56;;;19.65;21.35
46846;BME280;33947;46.804;134.252;2023-05-07T05:25:19;100569.72;;;19.53;19.75
46846;BME280;33947;46.804;134.252;2023-05-07T05:28:24;100588.31;;;20.00;18.85
46846;BME280;33947;46.804;134.252;2023-05-07T05:31:34;100588.84;;;20.05;19.88
46846;BME280;33947;46.804;134.252;2023-05-07T05:34:42;100557.56;;;20.02;20.06
46846;BME280;33947;46.804;134.252;2023-05-07T05:37:46;100592.31;;;20.07;20.08
46846;BME280;33947;46.804;134.252;2023-05-07T05:40:53;100591.91;;;20.13;20.42
46846;BME280;33947;46.804;134.252;2023-05-07T05:43:59;100587.97;;;20.04;19.93
46846;BME280;33947;46.804;134.252;2023-05-07T05:47:06;100581.22;;;19.70;20.27
46846;BME280;33947;46.804;134.252;2023-05-07T05:50:10;100567.50;;;19.45;20.32
46846;BME280;33947;46.804;134.252;2023-05-07T05:53:18;100580.50;;;19.53;20.96
46846;BME280;33947;46.804;134.252;2023-05-07T05:56:22;100579.53;;;19.54;20.84
46846;BME280;33947;46.804;134.252;2023-05-07T05:59:27;100560.50;;;19.28;20.69
46846;BME280;33947;46.804;134.252;2023-05-07T06:02:32;100552.28;;;19.86;20.21
46846;BME280;33947;46.804;134.252;2023-05-07T06:06:08;100570.44;;;20.12;18.25
46846;BME280;33947;46.804;134.252;2023-05-07T06:10:35;100575.63;;;20.15;19.35
46846;BME280;33947;46.804;134.252;2023-05-07T06:14:49;100518.53;;;19.38;19.26
46846;BME280;33947;46.804;134.252;2023-05-07T06:18:23;100551.72;;;19.24;19.30
46846;BME280;33947;46.804;134.252;2023-05-07T06:22:07;100566.63;;;20.01;19.73
46846;BME280;33947;46.804;134.252;2023-05-07T06:25:31;100519.63;;;19.63;18.23
46846;BME280;33947;46.804;134.252;2023-05-07T06:28:43;100544.03;;;20.17;19.01
46846;BME280;33947;46.804;134.252;2023-05-07T06:32:10;100554.25;;;20.78;18.83
46846;BME280;33947;46.804;134.252;2023-05-07T06:35:17;100549.81;;;20.64;18.32
46846;BME280;33947;46.804;134.252;2023-05-07T06:38:22;100519.22;;;20.24;18.44
46846;BME280;33947;46.804;134.252;2023-05-07T06:41:59;100560.31;;;20.15;18.48
46846;BME280;33947;46.804;134.252;2023-05-07T06:45:15;100521.38;;;19.64;18.73
46846;BME280;33947;46.804;134.252;2023-05-07T06:48:35;100544.31;;;19.43;18.42
46846;BME280;33947;46.804;134.252;2023-05-07T06:51:43;100528.75;;;19.33;18.49
46846;BME280;33947;46.804;134.252;2023-05-07T06:55:10;100529.22;;;19.40;18.32
46846;BME280;33947;46.804;134.252;2023-05-07T06:58:47;100524.97;;;19.78;18.62
46846;BME280;33947;46.804;134.252;2023-05-07T07:01:53;100464.78;;;19.64;18.37
46846;BME280;33947;46.804;134.252;2023-05-07T07:05:57;100511.19;;;19.83;18.44
46846;BME280;33947;46.804;134.252;2023-05-07T07:09:45;100461.22;;;19.64;18.99
46846;BME280;33947;46.804;134.252;2023-05-07T07:12:53;100537.63;;;20.05;18.92
46846;BME280;33947;46.804;134.252;2023-05-07T07:15:58;100546.47;;;20.07;18.71
46846;BME280;33947;46.804;134.252;2023-05-07T07:19:03;100526.72;;;20.06;18.73
46846;BME280;33947;46.804;134.252;2023-05-07T07:22:07;100524.56;;;19.99;18.46
46846;BME280;33947;46.804;134.252;2023-05-07T07:25:15;100535.19;;;20.15;18.89
46846;BME280;33947;46.804;134.252;2023-05-07T07:28:21;100542.72;;;20.22;19.33
46846;BME280;33947;46.804;134.252;2023-05-07T07:31:32;100513.03;;;19.82;19.24
46846;BME280;33947;46.804;134.252;2023-05-07T07:34:36;100543.53;;;19.97;19.33
46846;BME280;33947;46.804;134.252;2023-05-07T07:37:48;100553.97;;;19.74;18.90
46846;BME280;33947;46.804;134.252;2023-05-07T07:40:55;100535.13;;;19.60;19.39
46846;BME280;33947;46.804;134.252;2023-05-07T07:44:10;100556.00;;;19.71;20.10
46846;BME280;33947;46.804;134.252;2023-05-07T07:47:26;100543.13;;;19.61;19.91
46846;BME280;33947;46.804;134.252;2023-05-07T07:50:36;100532.75;;;19.55;19.43
46846;BME280;33947;46.804;134.252;2023-05-07T07:53:50;100545.84;;;19.47;20.08
46846;BME280;33947;46.804;134.252;2023-05-07T07:57:04;100534.91;;;19.35;19.72
46846;BME280;33947;46.804;134.252;2023-05-07T08:00:13;100538.00;;;19.15;20.12
46846;BME280;33947;46.804;134.252;2023-05-07T08:03:19;100541.25;;;19.34;20.16
46846;BME280;33947;46.804;134.252;2023-05-07T08:06:29;100551.84;;;19.08;20.42
46846;BME280;33947;46.804;134.252;2023-05-07T08:09:37;100548.50;;;18.74;20.05
46846;BME280;33947;46.804;134.252;2023-05-07T08:12:45;100530.81;;;18.70;20.26
46846;BME280;33947;46.804;134.252;2023-05-07T08:15:50;100534.84;;;18.48;20.20
46846;BME280;33947;46.804;134.252;2023-05-07T08:19:04;100548.56;;;18.44;19.95
46846;BME280;33947;46.804;134.252;2023-05-07T08:22:12;100534.16;;;18.45;20.63
46846;BME280;33947;46.804;134.252;2023-05-07T08:25:17;100536.97;;;18.58;20.31
46846;BME280;33947;46.804;134.252;2023-05-07T08:28:21;100530.88;;;18.54;19.74
46846;BME280;33947;46.804;134.252;2023-05-07T08:31:28;100531.06;;;18.51;20.13
46846;BME280;33947;46.804;134.252;2023-05-07T08:34:33;100533.38;;;18.43;20.33
46846;BME280;33947;46.804;134.252;2023-05-07T08:37:41;100535.50;;;18.52;20.59
46846;BME280;33947;46.804;134.252;2023-05-07T08:40:49;100532.72;;;18.39;20.86
46846;BME280;33947;46.804;134.252;2023-05-07T08:43:58;100535.06;;;18.29;20.83
46846;BME280;33947;46.804;134.252;2023-05-07T08:47:12;100521.31;;;18.19;20.93
46846;BME280;33947;46.804;134.252;2023-05-07T08:50:20;100530.72;;;18.27;21.34
46846;BME280;33947;46.804;134.252;2023-05-07T08:53:26;100535.25;;;18.26;21.47
46846;BME280;33947;46.804;134.252;2023-05-07T08:56:31;100513.38;;;18.02;21.36
46846;BME280;33947;46.804;134.252;2023-05-07T08:59:36;100526.16;;;17.97;21.09
46846;BME280;33947;46.804;134.252;2023-05-07T09:02:41;100537.09;;;17.93;21.25
46846;BME280;33947;46.804;134.252;2023-05-07T09:05:48;100525.41;;;17.94;21.51
46846;BME280;33947;46.804;134.252;2023-05-07T09:08:55;100520.75;;;17.82;21.29
46846;BME280;33947;46.804;134.252;2023-05-07T09:12:05;100503.78;;;17.65;21.56
46846;BME280;33947;46.804;134.252;2023-05-07T09:15:23;100542.00;;;17.87;21.77
46846;BME280;33947;46.804;134.252;2023-05-07T09:18:29;100527.50;;;17.57;22.09
46846;BME280;33947;46.804;134.252;2023-05-07T09:21:37;100531.16;;;17.56;22.42
46846;BME280;33947;46.804;134.252;2023-05-07T09:24:51;100531.00;;;17.43;22.49
46846;BME280;33947;46.804;134.252;2023-05-07T09:28:01;100534.88;;;17.38;22.43
46846;BME280;33947;46.804;134.252;2023-05-07T09:31:11;100523.34;;;17.19;22.87
46846;BME280;33947;46.804;134.252;2023-05-07T09:34:26;100535.31;;;16.96;23.65
46846;BME280;33947;46.804;134.252;2023-05-07T09:37:31;100522.81;;;16.61;24.37
46846;BME280;33947;46.804;134.252;2023-05-07T09:40:36;100525.13;;;16.52;24.81
46846;BME280;33947;46.804;134.252;2023-05-07T09:43:46;100533.16;;;16.16;26.00
46846;BME280;33947;46.804;134.252;2023-05-07T09:46:57;100532.75;;;16.06;26.84
46846;BME280;33947;46.804;134.252;2023-05-07T09:50:12;100528.97;;;15.74;27.46
46846;BME280;33947;46.804;134.252;2023-05-07T09:53:23;100528.19;;;15.91;26.82
46846;BME280;33947;46.804;134.252;2023-05-07T09:56:30;100544.94;;;15.95;26.45
46846;BME280;33947;46.804;134.252;2023-05-07T09:59:38;100529.53;;;15.81;26.89
46846;BME280;33947;46.804;134.252;2023-05-07T10:02:49;100528.69;;;15.61;27.28
46846;BME280;33947;46.804;134.252;2023-05-07T10:06:04;100511.34;;;15.31;27.79
46846;BME280;33947;46.804;134.252;2023-05-07T10:09:20;100527.88;;;14.82;29.45
46846;BME280;33947;46.804;134.252;2023-05-07T10:12:36;100534.72;;;14.46;31.05
46846;BME280;33947;46.804;134.252;2023-05-07T10:16:02;100556.09;;;14.26;31.40
46846;BME280;33947;46.804;134.252;2023-05-07T10:19:29;100524.38;;;13.96;32.18
46846;BME280;33947;46.804;134.252;2023-05-07T10:22:56;100559.91;;;13.98;31.82
46846;BME280;33947;46.804;134.252;2023-05-07T10:26:15;100528.84;;;13.73;32.21
46846;BME280;33947;46.804;134.252;2023-05-07T10:32:49;100547.28;;;13.79;33.12
46846;BME280;33947;46.804;134.252;2023-05-07T10:36:04;100547.09;;;13.38;33.88
46846;BME280;33947;46.804;134.252;2023-05-07T10:39:21;100560.75;;;13.06;34.75
46846;BME280;33947;46.804;134.252;2023-05-07T10:42:31;100542.94;;;12.57;35.35
46846;BME280;33947;46.804;134.252;2023-05-07T10:46:17;100567.75;;;12.59;37.35
46846;BME280;33947;46.804;134.252;2023-05-07T11:01:50;100575.97;;;11.98;38.85
46846;BME280;33947;46.804;134.252;2023-05-07T11:05:21;100576.13;;;11.92;38.96
46846;BME280;33947;46.804;134.252;2023-05-07T11:08:57;100586.84;;;11.62;38.30
46846;BME280;33947;46.804;134.252;2023-05-07T11:12:12;100546.72;;;11.39;38.43
46846;BME280;33947;46.804;134.252;2023-05-07T11:15:35;100585.09;;;11.61;38.82
46846;BME280;33947;46.804;134.252;2023-05-07T11:18:50;100560.09;;;11.06;39.98
46846;BME280;33947;46.804;134.252;2023-05-07T11:22:06;100578.91;;;10.98;39.96
46846;BME280;33947;46.804;134.252;2023-05-07T11:25:40;100564.66;;;10.69;41.31
46846;BME280;33947;46.804;134.252;2023-05-07T11:28:53;100593.47;;;10.85;40.85
46846;BME280;33947;46.804;134.252;2023-05-07T11:32:02;100599.66;;;10.85;40.72
46846;BME280;33947;46.804;134.252;2023-05-07T11:35:23;100592.41;;;10.91;40.73
46846;BME280;33947;46.804;134.252;2023-05-07T11:38:36;100598.94;;;10.79;42.57
46846;BME280;33947;46.804;134.252;2023-05-07T11:41:44;100540.94;;;10.27;41.75
46846;BME280;33947;46.804;134.252;2023-05-07T11:44:49;100595.28;;;10.50;42.13
46846;BME280;33947;46.804;134.252;2023-05-07T11:47:55;100598.25;;;10.36;42.79
46846;BME280;33947;46.804;134.252;2023-05-07T11:51:07;100519.03;;;9.82;43.53
46846;BME280;33947;46.804;134.252;2023-05-07T11:54:39;100510.09;;;9.49;44.46
46846;BME280;33947;46.804;134.252;2023-05-07T11:58:21;100617.88;;;9.92;44.67
46846;BME280;33947;46.804;134.252;2023-05-07T12:01:27;100614.31;;;9.92;44.48
46846;BME280;33947;46.804;134.252;2023-05-07T12:04:31;100608.16;;;9.91;44.52
46846;BME280;33947;46.804;134.252;2023-05-07T12:07:36;100624.19;;;9.87;45.18
46846;BME280;33947;46.804;134.252;2023-05-07T12:10:47;100619.03;;;9.80;46.36
46846;BME280;33947;46.804;134.252;2023-05-07T12:13:55;100625.22;;;9.79;45.91
46846;BME280;33947;46.804;134.252;2023-05-07T12:17:02;100624.28;;;9.82;46.22
46846;BME280;33947;46.804;134.252;2023-05-07T12:20:07;100595.81;;;9.51;46.67
46846;BME280;33947;46.804;134.252;2023-05-07T12:23:13;100623.88;;;9.60;48.36
46846;BME280;33947;46.804;134.252;2023-05-07T12:26:19;100610.16;;;9.81;45.87
46846;BME280;33947;46.804;134.252;2023-05-07T12:29:26;100624.47;;;9.74;46.33
46846;BME280;33947;46.804;134.252;2023-05-07T12:32:32;100589.66;;;9.49;46.43
46846;BME280;33947;46.804;134.252;2023-05-07T12:35:42;100621.22;;;9.60;46.94
46846;BME280;33947;46.804;134.252;2023-05-07T12:38:50;100611.03;;;9.41;47.81
46846;BME280;33947;46.804;134.252;2023-05-07T12:41:56;100616.13;;;9.50;47.93
46846;BME280;33947;46.804;134.252;2023-05-07T12:45:11;100610.53;;;9.63;48.78
46846;BME280;33947;46.804;134.252;2023-05-07T12:48:21;100609.06;;;9.51;48.23
46846;BME280;33947;46.804;134.252;2023-05-07T12:51:30;100592.88;;;9.62;47.22
46846;BME280;33947;46.804;134.252;2023-05-07T12:54:38;100562.16;;;9.53;46.95
46846;BME280;33947;46.804;134.252;2023-05-07T12:57:49;100611.75;;;9.89;46.72
46846;BME280;33947;46.804;134.252;2023-05-07T13:01:04;100595.53;;;9.62;47.27
46846;BME280;33947;46.804;134.252;2023-05-07T13:04:27;100597.06;;;9.33;48.81
46846;BME280;33947;46.804;134.252;2023-05-07T13:07:34;100567.72;;;8.98;48.91
46846;BME280;33947;46.804;134.252;2023-05-07T13:10:43;100579.84;;;9.08;49.37
46846;BME280;33947;46.804;134.252;2023-05-07T13:13:50;100590.38;;;9.13;48.82
46846;BME280;33947;46.804;134.252;2023-05-07T13:16:54;100585.13;;;9.10;48.90
46846;BME280;33947;46.804;134.252;2023-05-07T13:19:59;100584.03;;;8.76;49.82
46846;BME280;33947;46.804;134.252;2023-05-07T13:23:05;100591.34;;;8.62;50.93
46846;BME280;33947;46.804;134.252;2023-05-07T13:26:10;100581.81;;;8.51;51.26
46846;BME280;33947;46.804;134.252;2023-05-07T13:29:29;100581.06;;;8.42;51.48
46846;BME280;33947;46.804;134.252;2023-05-07T13:32:39;100572.91;;;8.57;50.61
46846;BME280;33947;46.804;134.252;2023-05-07T13:35:43;100571.19;;;8.54;50.72
46846;BME280;33947;46.804;134.252;2023-05-07T13:38:48;100565.53;;;8.23;51.90
46846;BME280;33947;46.804;134.252;2023-05-07T13:41:55;100567.03;;;7.83;53.32
46846;BME280;33947;46.804;134.252;2023-05-07T13:45:02;100567.16;;;7.74;53.70
46846;BME280;33947;46.804;134.252;2023-05-07T13:48:13;100561.50;;;7.99;52.85
46846;BME280;33947;46.804;134.252;2023-05-07T13:51:17;100569.81;;;7.74;53.84
46846;BME280;33947;46.804;134.252;2023-05-07T13:54:24;100575.94;;;7.76;54.10
46846;BME280;33947;46.804;134.252;2023-05-07T13:57:29;100425.03;;;6.71;54.58
46846;BME280;33947;46.804;134.252;2023-05-07T14:00:36;100539.28;;;7.51;54.63
46846;BME280;33947;46.804;134.252;2023-05-07T14:03:41;100567.41;;;7.55;54.77
46846;BME280;33947;46.804;134.252;2023-05-07T14:06:45;100534.84;;;7.53;54.31
46846;BME280;33947;46.804;134.252;2023-05-07T14:09:49;100564.41;;;7.81;53.26
46846;BME280;33947;46.804;134.252;2023-05-07T14:12:53;100565.72;;;7.52;54.04
46846;BME280;33947;46.804;134.252;2023-05-07T14:15:58;100567.69;;;7.35;54.96
46846;BME280;33947;46.804;134.252;2023-05-07T14:19:03;100571.44;;;7.20;55.42
46846;BME280;33947;46.804;134.252;2023-05-07T14:22:07;100557.66;;;6.91;55.90
46846;BME280;33947;46.804;134.252;2023-05-07T14:25:11;100560.31;;;6.91;55.93
46846;BME280;33947;46.804;134.252;2023-05-07T14:28:20;100574.31;;;6.97;55.77
46846;BME280;33947;46.804;134.252;2023-05-07T14:31:25;100568.34;;;6.84;56.31
46846;BME280;33947;46.804;134.252;2023-05-07T14:34:32;100557.00;;;6.74;56.22
46846;BME280;33947;46.804;134.252;2023-05-07T14:37:36;100545.66;;;6.65;56.28
46846;BME280;33947;46.804;134.252;2023-05-07T14:40:40;100570.91;;;6.90;55.40
46846;BME280;33947;46.804;134.252;2023-05-07T14:43:44;100575.56;;;6.63;56.89
46846;BME280;33947;46.804;134.252;2023-05-07T14:46:53;100574.75;;;6.58;56.46
46846;BME280;33947;46.804;134.252;2023-05-07T14:49:57;100574.03;;;6.40;56.96
46846;BME280;33947;46.804;134.252;2023-05-07T14:53:01;100572.31;;;6.34;56.97
46846;BME280;33947;46.804;134.252;2023-05-07T14:56:06;100573.25;;;6.30;57.39
46846;BME280;33947;46.804;134.252;2023-05-07T14:59:13;100480.63;;;5.60;57.08
46846;BME280;33947;46.804;134.252;2023-05-07T15:02:44;100464.81;;;5.60;57.27
46846;BME280;33947;46.804;134.252;2023-05-07T15:05:51;100580.34;;;6.19;57.05
46846;BME280;33947;46.804;134.252;2023-05-07T15:08:55;100563.75;;;6.07;57.42
46846;BME280;33947;46.804;134.252;2023-05-07T15:12:00;100559.38;;;6.06;57.00
46846;BME280;33947;46.804;134.252;2023-05-07T15:15:06;100579.66;;;5.90;57.38
46846;BME280;33947;46.804;134.252;2023-05-07T15:18:11;100568.34;;;5.79;58.08
46846;BME280;33947;46.804;134.252;2023-05-07T15:21:15;100578.81;;;5.87;58.32
46846;BME280;33947;46.804;134.252;2023-05-07T15:24:20;100559.38;;;6.05;57.01
46846;BME280;33947;46.804;134.252;2023-05-07T15:27:24;100548.16;;;5.70;57.44
46846;BME280;33947;46.804;134.252;2023-05-07T15:30:31;100567.50;;;5.69;58.14
46846;BME280;33947;46.804;134.252;2023-05-07T15:33:35;100557.88;;;5.65;57.64
46846;BME280;33947;46.804;134.252;2023-05-07T15:36:40;100564.94;;;5.58;58.26
46846;BME280;33947;46.804;134.252;2023-05-07T15:39:46;100559.72;;;5.47;58.56
46846;BME280;33947;46.804;134.252;2023-05-07T15:42:54;100569.44;;;5.36;59.18
46846;BME280;33947;46.804;134.252;2023-05-07T15:45:59;100563.25;;;5.43;59.04
46846;BME280;33947;46.804;134.252;2023-05-07T15:49:03;100564.13;;;5.45;58.89
46846;BME280;33947;46.804;134.252;2023-05-07T15:52:11;100557.19;;;5.29;59.77
46846;BME280;33947;46.804;134.252;2023-05-07T15:55:17;100561.56;;;5.34;59.49
46846;BME280;33947;46.804;134.252;2023-05-07T15:58:29;100560.69;;;5.35;59.88
46846;BME280;33947;46.804;134.252;2023-05-07T16:01:45;100563.34;;;5.31;60.47
46846;BME280;33947;46.804;134.252;2023-05-07T16:04:54;100537.91;;;5.19;59.82
46846;BME280;33947;46.804;134.252;2023-05-07T16:07:58;100551.97;;;5.22;60.15
46846;BME280;33947;46.804;134.252;2023-05-07T16:11:03;100502.09;;;4.84;60.40
46846;BME280;33947;46.804;134.252;2023-05-07T16:14:10;100545.91;;;4.96;61.11
46846;BME280;33947;46.804;134.252;2023-05-07T16:17:14;100563.38;;;5.21;59.85
46846;BME280;33947;46.804;134.252;2023-05-07T16:20:19;100541.44;;;5.18;59.91
46846;BME280;33947;46.804;134.252;2023-05-07T16:23:32;100542.38;;;5.12;60.10
46846;BME280;33947;46.804;134.252;2023-05-07T16:26:40;100506.47;;;4.88;59.71
46846;BME280;33947;46.804;134.252;2023-05-07T16:29:47;100538.09;;;4.83;60.70
46846;BME280;33947;46.804;134.252;2023-05-07T16:32:54;100517.03;;;4.80;60.46
46846;BME280;33947;46.804;134.252;2023-05-07T16:35:59;100538.03;;;5.00;60.54
46846;BME280;33947;46.804;134.252;2023-05-07T16:39:03;100525.75;;;4.90;60.30
46846;BME280;33947;46.804;134.252;2023-05-07T16:42:08;100531.06;;;4.81;60.52